createdAt,value
2019-03-10T00:01:22.393Z,101355.37
2019-03-10T00:04:13.815Z,101339.59
2019-03-10T00:07:05.430Z,101332.01
2019-03-10T00:09:56.827Z,101329.78
2019-03-10T00:12:48.365Z,101325.41
2019-03-10T00:15:39.950Z,101317.84
2019-03-10T00:18:31.457Z,101318.52
2019-03-10T00:21:23.018Z,101310.12
2019-03-10T00:24:14.323Z,101296.98
2019-03-10T00:27:05.858Z,101295.89
2019-03-10T00:29:57.615Z,101284.72
2019-03-10T00:32:49.342Z,101278.89
2019-03-10T00:35:41.640Z,101276.55
2019-03-10T00:38:58.081Z,101274.22
2019-03-10T00:43:00.282Z,101271.50
2019-03-10T00:46:39.450Z,101265.97
2019-03-10T00:50:29.855Z,101263.07
2019-03-10T00:53:21.567Z,101256.34
2019-03-10T00:56:13.086Z,101250.11
2019-03-10T00:59:04.601Z,101240.77
2019-03-10T01:01:56.374Z,101231.72
2019-03-10T01:04:48.740Z,101222.25
2019-03-10T01:07:40.263Z,101216.41
2019-03-10T01:10:32.055Z,101211.75
2019-03-10T01:13:23.566Z,101201.30
2019-03-10T01:16:15.180Z,101191.56
2019-03-10T01:19:06.751Z,101183.80
2019-03-10T01:22:00.534Z,101168.83
2019-03-10T01:24:52.167Z,101160.88
2019-03-10T01:27:43.953Z,101150.18
2019-03-10T01:31:06.638Z,101131.32
2019-03-10T01:34:47.282Z,101112.78
2019-03-10T01:37:38.689Z,101108.02
2019-03-10T01:40:30.319Z,101101.78
2019-03-10T01:43:21.906Z,101085.83
2019-03-10T01:46:13.411Z,101076.59
2019-03-10T01:49:05.180Z,101064.01
2019-03-10T01:51:56.876Z,101044.56
2019-03-10T01:54:48.601Z,101022.66
2019-03-10T01:57:41.185Z,101014.00
2019-03-10T02:00:33.654Z,101004.23
2019-03-10T02:03:25.539Z,100974.88
2019-03-10T02:06:17.421Z,100943.28
2019-03-10T02:09:09.327Z,100934.34
2019-03-10T02:12:01.618Z,100918.73
2019-03-10T02:14:53.151Z,100896.23
2019-03-10T02:17:45.221Z,100885.30
2019-03-10T02:20:37.147Z,100858.30
2019-03-10T02:23:28.895Z,100824.97
2019-03-10T02:26:20.501Z,100803.95
2019-03-10T02:29:12.059Z,100780.36
2019-03-10T02:32:03.856Z,100766.86
2019-03-10T02:34:55.657Z,100765.45
2019-03-10T02:37:47.223Z,100765.75
2019-03-10T02:40:38.948Z,100757.86
2019-03-10T02:43:30.730Z,100744.20
2019-03-10T02:46:22.467Z,100735.12
2019-03-10T02:49:15.135Z,100717.28
2019-03-10T02:52:06.625Z,100715.55
2019-03-10T02:54:58.377Z,100694.27
2019-03-10T02:57:49.772Z,100675.76
2019-03-10T03:00:42.224Z,100664.39
2019-03-10T03:03:33.900Z,100641.20
2019-03-10T03:06:26.384Z,100619.16
2019-03-10T03:09:18.239Z,100606.09
2019-03-10T03:12:10.104Z,100596.22
2019-03-10T03:15:01.985Z,100590.69
2019-03-10T03:17:55.476Z,100582.81
2019-03-10T03:20:46.923Z,100567.78
2019-03-10T03:23:38.679Z,100568.26
2019-03-10T03:26:30.838Z,100546.26
2019-03-10T03:29:22.253Z,100526.64
2019-03-10T03:32:13.817Z,100536.23
2019-03-10T03:35:24.520Z,100529.14
2019-03-10T03:38:16.711Z,100502.59
2019-03-10T03:41:12.643Z,100484.37
2019-03-10T03:44:04.340Z,100540.02
2019-03-10T03:46:55.638Z,100518.52
2019-03-10T03:49:48.305Z,100484.42
2019-03-10T03:52:39.694Z,100486.18
2019-03-10T03:55:31.348Z,100459.84
2019-03-10T03:58:22.944Z,100456.02
2019-03-10T04:01:18.127Z,100442.00
2019-03-10T04:04:10.080Z,100447.56
2019-03-10T04:07:02.290Z,100430.27
2019-03-10T04:09:53.613Z,100422.30
2019-03-10T04:12:45.234Z,100408.19
2019-03-10T04:15:36.750Z,100398.16
2019-03-10T04:18:28.328Z,100389.08
2019-03-10T04:21:19.675Z,100375.28
2019-03-10T04:24:10.968Z,100376.11
2019-03-10T04:27:03.083Z,100366.59
2019-03-10T04:29:54.388Z,100364.70
2019-03-10T04:32:45.744Z,100341.57
2019-03-10T04:35:37.349Z,100327.25
2019-03-10T04:38:29.020Z,100330.36
2019-03-10T04:41:20.573Z,100314.75
2019-03-10T04:44:12.160Z,100293.55
2019-03-10T04:47:03.600Z,100283.16
2019-03-10T04:49:55.370Z,100281.83
2019-03-10T04:52:46.994Z,100274.64
2019-03-10T04:55:57.197Z,100261.71
2019-03-10T04:58:51.043Z,100249.57
2019-03-10T05:01:43.483Z,100251.17
2019-03-10T05:04:35.126Z,100255.34
2019-03-10T05:07:26.625Z,100246.20
2019-03-10T05:10:18.853Z,100241.48
2019-03-10T05:13:10.481Z,100235.55
2019-03-10T05:16:02.810Z,100227.15
2019-03-10T05:18:54.421Z,100225.87
2019-03-10T05:21:45.920Z,100225.27
2019-03-10T05:24:38.104Z,100214.82
2019-03-10T05:27:29.449Z,100205.78
2019-03-10T05:30:21.086Z,100201.44
2019-03-10T05:33:12.662Z,100198.41
2019-03-10T05:36:04.890Z,100185.09
2019-03-10T05:38:56.534Z,100178.81
2019-03-10T05:41:49.243Z,100176.63
2019-03-10T05:44:40.600Z,100173.53
2019-03-10T05:47:31.975Z,100166.64
2019-03-10T05:50:23.665Z,100167.16
2019-03-10T05:53:15.035Z,100158.08
2019-03-10T05:56:06.441Z,100156.33
2019-03-10T05:58:58.072Z,100147.19
2019-03-10T06:01:49.662Z,100144.55
2019-03-10T06:04:41.275Z,100150.92
2019-03-10T06:07:33.266Z,100143.00
2019-03-10T06:10:24.809Z,100141.92
2019-03-10T06:13:16.430Z,100146.80
2019-03-10T06:16:07.993Z,100135.53
2019-03-10T06:18:59.540Z,100136.31
2019-03-10T06:21:51.294Z,100135.87
2019-03-10T06:24:42.847Z,100131.87
2019-03-10T06:27:34.199Z,100141.43
2019-03-10T06:30:25.850Z,100140.80
2019-03-10T06:33:17.381Z,100131.83
2019-03-10T06:36:08.712Z,100132.24
2019-03-10T06:39:00.433Z,100124.91
2019-03-10T06:41:53.239Z,100120.88
2019-03-10T06:44:44.840Z,100119.49
2019-03-10T06:47:36.400Z,100136.22
2019-03-10T06:50:28.151Z,100137.27
2019-03-10T06:53:19.955Z,100126.27
2019-03-10T06:56:11.488Z,100122.67
2019-03-10T06:59:03.125Z,100121.95
2019-03-10T07:01:55.174Z,100119.50
2019-03-10T07:04:46.780Z,100114.73
2019-03-10T07:07:38.242Z,100114.52
2019-03-10T07:10:29.660Z,100115.06
2019-03-10T07:13:21.140Z,100120.41
2019-03-10T07:16:12.579Z,100112.77
2019-03-10T07:19:04.390Z,100120.09
2019-03-10T07:21:55.992Z,100113.82
2019-03-10T07:24:49.154Z,100118.27
2019-03-10T07:27:53.562Z,100113.95
2019-03-10T07:31:04.771Z,100112.05
2019-03-10T07:34:14.444Z,100099.27
2019-03-10T07:37:17.911Z,100107.08
2019-03-10T07:40:31.339Z,100113.34
2019-03-10T07:43:42.578Z,100111.73
2019-03-10T07:46:53.687Z,100102.47
2019-03-10T07:49:55.627Z,100092.30
2019-03-10T07:53:09.069Z,100110.09
2019-03-10T07:56:31.852Z,100100.61
2019-03-10T07:59:39.914Z,100088.89
2019-03-10T08:02:53.933Z,100104.36
2019-03-10T08:06:07.151Z,100089.78
2019-03-10T08:09:17.385Z,100095.43
2019-03-10T08:12:24.347Z,100088.91
2019-03-10T08:15:33.758Z,100086.09
2019-03-10T08:18:50.350Z,100072.21
2019-03-10T08:22:06.542Z,100055.77
2019-03-10T08:25:14.258Z,100046.17
2019-03-10T08:28:25.685Z,100057.34
2019-03-10T08:31:54.592Z,100056.53
2019-03-10T08:35:24.149Z,100054.41
2019-03-10T08:38:50.538Z,100058.61
2019-03-10T08:42:01.608Z,100060.13
2019-03-10T08:44:59.240Z,100062.61
2019-03-10T08:48:13.266Z,100060.02
2019-03-10T08:51:21.980Z,100059.64
2019-03-10T08:54:36.598Z,100055.23
2019-03-10T08:57:51.909Z,100040.76
2019-03-10T09:01:05.618Z,100037.31
2019-03-10T09:04:22.244Z,100021.69
2019-03-10T09:07:48.060Z,100012.98
2019-03-10T09:10:47.152Z,100028.89
2019-03-10T09:13:57.452Z,100022.95
2019-03-10T09:16:55.985Z,100038.45
2019-03-10T09:20:16.237Z,100032.94
2019-03-10T09:23:14.659Z,100043.77
2019-03-10T09:26:27.674Z,100034.91
2019-03-10T09:29:51.043Z,100028.28
2019-03-10T09:33:01.948Z,100027.78
2019-03-10T09:36:03.796Z,100014.77
2019-03-10T09:39:11.311Z,100034.36
2019-03-10T09:42:18.174Z,100040.60
2019-03-10T09:45:30.096Z,100032.88
2019-03-10T09:48:30.497Z,100046.56
2019-03-10T09:51:44.009Z,100056.67
2019-03-10T09:54:53.526Z,100064.23
2019-03-10T09:58:00.081Z,100060.81
2019-03-10T10:01:16.632Z,100065.22
2019-03-10T10:04:30.095Z,100063.05
2019-03-10T10:07:46.162Z,100072.13
2019-03-10T10:11:00.075Z,100066.52
2019-03-10T10:14:03.741Z,100074.56
2019-03-10T10:17:20.323Z,100070.42
2019-03-10T10:20:36.449Z,100092.27
2019-03-10T10:23:34.463Z,100094.60
2019-03-10T10:26:50.831Z,100112.61
2019-03-10T10:30:01.389Z,100098.32
2019-03-10T10:33:09.067Z,100126.47
2019-03-10T10:36:19.555Z,100140.75
2019-03-10T10:39:29.998Z,100123.41
2019-03-10T10:42:37.430Z,100133.94
2019-03-10T10:45:48.032Z,100143.85
2019-03-10T10:48:53.270Z,100144.34
2019-03-10T10:52:00.087Z,100138.98
2019-03-10T10:55:07.042Z,100181.08
2019-03-10T10:58:20.596Z,100198.64
2019-03-10T11:01:39.348Z,100218.05
2019-03-10T11:04:54.983Z,100222.34
2019-03-10T11:07:54.616Z,100240.80
2019-03-10T11:11:08.329Z,100257.91
2019-03-10T11:14:11.564Z,100290.27
2019-03-10T11:17:20.925Z,100313.48
2019-03-10T11:20:17.661Z,100317.77
2019-03-10T11:23:28.270Z,100338.83
2019-03-10T11:26:24.972Z,100356.97
2019-03-10T11:29:35.693Z,100372.45
2019-03-10T11:32:36.350Z,100372.20
2019-03-10T11:35:45.090Z,100418.30
2019-03-10T11:38:53.805Z,100419.69
2019-03-10T11:42:01.100Z,100441.63
2019-03-10T11:45:26.926Z,100455.30
2019-03-10T11:48:34.863Z,100463.62
2019-03-10T11:51:45.256Z,100466.78
2019-03-10T11:54:43.668Z,100475.44
2019-03-10T11:58:10.155Z,100506.31
2019-03-10T12:01:20.507Z,100509.58
2019-03-10T12:04:34.131Z,100533.11
2019-03-10T12:07:47.416Z,100554.25
2019-03-10T12:10:41.183Z,100561.13
2019-03-10T12:13:32.756Z,100550.59
2019-03-10T12:16:24.347Z,100587.03
2019-03-10T12:19:15.864Z,100592.34
2019-03-10T12:22:07.395Z,100618.55
2019-03-10T12:24:59.238Z,100614.17
2019-03-10T12:27:50.751Z,100621.59
2019-03-10T12:30:42.863Z,100644.52
2019-03-10T12:33:34.571Z,100649.17
2019-03-10T12:36:26.330Z,100659.50
2019-03-10T12:39:17.790Z,100675.97
2019-03-10T12:42:09.457Z,100670.02
2019-03-10T12:45:01.011Z,100694.11
2019-03-10T12:47:53.094Z,100694.65
2019-03-10T12:50:44.729Z,100696.88
2019-03-10T12:53:38.093Z,100712.51
2019-03-10T12:56:30.190Z,100733.91
2019-03-10T12:59:21.699Z,100754.45
2019-03-10T13:02:14.521Z,100765.97
2019-03-10T13:05:07.666Z,100764.77
2019-03-10T13:07:59.217Z,100789.50
2019-03-10T13:10:51.021Z,100769.06
2019-03-10T13:13:42.732Z,100776.53
2019-03-10T13:16:34.574Z,100768.47
2019-03-10T13:19:26.258Z,100768.19
2019-03-10T13:22:17.804Z,100768.45
2019-03-10T13:25:10.250Z,100779.36
2019-03-10T13:28:01.870Z,100788.09
2019-03-10T13:30:54.209Z,100793.95
2019-03-10T13:33:45.923Z,100790.56
2019-03-10T13:36:38.249Z,100805.55
2019-03-10T13:39:29.953Z,100821.80
2019-03-10T13:42:21.652Z,100818.74
2019-03-10T13:45:14.116Z,100817.00
2019-03-10T13:48:05.755Z,100823.03
2019-03-10T13:50:57.231Z,100821.40
2019-03-10T13:53:48.694Z,100816.98
2019-03-10T13:56:40.132Z,100830.50
2019-03-10T13:59:32.283Z,100838.79
2019-03-10T14:02:24.389Z,100878.87
2019-03-10T14:05:16.523Z,100902.66
2019-03-10T14:08:08.362Z,100904.77
2019-03-10T14:11:00.199Z,100918.92
2019-03-10T14:13:51.820Z,100958.22
2019-03-10T14:16:43.427Z,100931.55
2019-03-10T14:19:35.019Z,100951.00
2019-03-10T14:22:26.760Z,100944.89
2019-03-10T14:25:18.666Z,100947.88
2019-03-10T14:28:10.161Z,100971.34
2019-03-10T14:31:01.751Z,101009.94
2019-03-10T14:33:54.229Z,100998.67
2019-03-10T14:36:46.653Z,101020.28
2019-03-10T14:39:38.118Z,101018.04
2019-03-10T14:42:29.917Z,101028.82
2019-03-10T14:45:21.597Z,101034.50
2019-03-10T14:48:13.430Z,101040.08
2019-03-10T14:51:05.247Z,101050.61
2019-03-10T14:53:56.703Z,101055.55
2019-03-10T14:56:48.251Z,101084.11
2019-03-10T14:59:40.140Z,101091.28
2019-03-10T15:02:31.661Z,101107.55
2019-03-10T15:05:23.158Z,101150.27
2019-03-10T15:08:14.911Z,101166.57
2019-03-10T15:11:06.357Z,101169.72
2019-03-10T15:13:58.155Z,101185.13
2019-03-10T15:16:49.539Z,101166.11
2019-03-10T15:19:41.203Z,101155.01
2019-03-10T15:22:32.911Z,101164.12
2019-03-10T15:25:25.617Z,101158.56
2019-03-10T15:28:17.021Z,101163.00
2019-03-10T15:31:08.593Z,101178.42
2019-03-10T15:34:00.683Z,101183.35
2019-03-10T15:36:52.245Z,101184.34
2019-03-10T15:39:45.385Z,101191.36
2019-03-10T15:42:37.070Z,101195.95
2019-03-10T15:45:28.740Z,101200.99
2019-03-10T15:48:20.166Z,101210.81
2019-03-10T15:51:11.699Z,101213.25
2019-03-10T15:54:03.053Z,101224.47
2019-03-10T15:56:54.687Z,101241.91
2019-03-10T15:59:46.844Z,101253.02
2019-03-10T16:02:38.177Z,101249.80
2019-03-10T16:05:29.541Z,101257.23
2019-03-10T16:08:21.091Z,101260.23
2019-03-10T16:11:12.732Z,101259.72
2019-03-10T16:14:05.006Z,101270.05
2019-03-10T16:16:56.606Z,101264.25
2019-03-10T16:19:47.887Z,101266.07
2019-03-10T16:22:39.370Z,101275.97
2019-03-10T16:25:30.684Z,101282.13
2019-03-10T16:28:22.815Z,101287.28
2019-03-10T16:31:14.351Z,101284.20
2019-03-10T16:34:06.002Z,101281.17
2019-03-10T16:36:57.275Z,101296.23
2019-03-10T16:39:48.892Z,101291.82
2019-03-10T16:42:40.881Z,101296.75
2019-03-10T16:45:32.295Z,101298.34
2019-03-10T16:48:23.906Z,101289.09
2019-03-10T16:51:15.259Z,101302.12
2019-03-10T16:54:06.536Z,101305.98
2019-03-10T16:56:58.115Z,101306.73
2019-03-10T16:59:50.306Z,101310.42
2019-03-10T17:02:43.283Z,101315.00
2019-03-10T17:05:35.771Z,101310.33
2019-03-10T17:08:27.308Z,101310.38
2019-03-10T17:11:18.699Z,101314.20
2019-03-10T17:14:10.031Z,101320.71
2019-03-10T17:17:01.651Z,101337.70
2019-03-10T17:19:53.083Z,101339.63
2019-03-10T17:22:44.861Z,101340.49
2019-03-10T17:25:36.263Z,101345.17
2019-03-10T17:28:27.821Z,101350.34
2019-03-10T17:31:19.209Z,101360.67
2019-03-10T17:34:10.745Z,101367.23
2019-03-10T17:37:02.825Z,101384.84
2019-03-10T17:39:54.194Z,101381.20
2019-03-10T17:42:45.850Z,101388.16
2019-03-10T17:45:37.188Z,101388.56
2019-03-10T17:48:28.826Z,101399.05
2019-03-10T17:51:21.048Z,101400.36
2019-03-10T17:54:12.460Z,101410.66
2019-03-10T17:57:04.695Z,101407.98
2019-03-10T17:59:56.092Z,101419.73
2019-03-10T18:02:47.903Z,101428.59
2019-03-10T18:05:39.501Z,101430.36
2019-03-10T18:08:30.803Z,101431.55
2019-03-10T18:11:23.094Z,101440.58
2019-03-10T18:14:14.711Z,101443.02
2019-03-10T18:17:06.297Z,101450.69
2019-03-10T18:19:59.242Z,101451.31
2019-03-10T18:22:50.615Z,101460.23
2019-03-10T18:25:42.004Z,101453.68
2019-03-10T18:28:33.737Z,101457.16
2019-03-10T18:31:25.147Z,101459.98
2019-03-10T18:34:16.822Z,101462.97
2019-03-10T18:37:08.276Z,101471.86
2019-03-10T18:40:00.115Z,101484.81
2019-03-10T18:42:51.713Z,101491.17
2019-03-10T18:45:44.207Z,101493.63
2019-03-10T18:48:35.739Z,101497.75
2019-03-10T18:51:27.155Z,101499.30
2019-03-10T18:54:19.355Z,101504.80
2019-03-10T18:57:11.236Z,101503.02
2019-03-10T19:00:02.990Z,101502.69
2019-03-10T19:02:55.928Z,101502.59
2019-03-10T19:05:47.616Z,101504.57
2019-03-10T19:08:39.943Z,101506.78
2019-03-10T19:11:31.583Z,101511.20
2019-03-10T19:14:24.749Z,101520.53
2019-03-10T19:17:16.310Z,101509.55
2019-03-10T19:20:09.201Z,101509.89
2019-03-10T19:23:00.857Z,101521.75
2019-03-10T19:25:53.062Z,101524.69
2019-03-10T19:28:44.472Z,101523.82
2019-03-10T19:31:35.866Z,101526.97
2019-03-10T19:34:28.120Z,101527.30
2019-03-10T19:37:19.624Z,101532.41
2019-03-10T19:40:13.737Z,101535.19
2019-03-10T19:43:05.079Z,101536.44
2019-03-10T19:45:56.670Z,101530.86
2019-03-10T19:48:48.110Z,101533.92
2019-03-10T19:51:39.689Z,101538.16
2019-03-10T19:54:32.639Z,101527.92
2019-03-10T19:57:24.264Z,101531.65
2019-03-10T20:00:17.120Z,101532.81
2019-03-10T20:03:10.628Z,101529.31
2019-03-10T20:06:03.041Z,101537.22
2019-03-10T20:08:55.634Z,101529.20
2019-03-10T20:11:47.014Z,101533.19
2019-03-10T20:14:40.380Z,101527.14
2019-03-10T20:17:31.924Z,101528.36
2019-03-10T20:20:23.606Z,101529.26
2019-03-10T20:23:15.075Z,101529.82
2019-03-10T20:26:06.390Z,101527.00
2019-03-10T20:28:57.979Z,101526.98
2019-03-10T20:31:49.686Z,101531.78
2019-03-10T20:34:40.972Z,101530.12
2019-03-10T20:37:32.567Z,101526.48
2019-03-10T20:40:24.356Z,101521.09
2019-03-10T20:43:16.027Z,101515.88
2019-03-10T20:46:07.417Z,101505.80
2019-03-10T20:48:59.082Z,101498.99
2019-03-10T20:51:50.644Z,101501.67
2019-03-10T20:54:41.989Z,101486.31
2019-03-10T20:57:33.526Z,101496.02
2019-03-10T21:00:25.354Z,101487.06
2019-03-10T21:03:16.687Z,101480.22
2019-03-10T21:06:08.922Z,101468.14
2019-03-10T21:09:00.694Z,101458.62
2019-03-10T21:11:53.875Z,101445.97
2019-03-10T21:14:45.370Z,101440.63
2019-03-10T21:17:36.964Z,101437.77
2019-03-10T21:20:28.638Z,101434.22
2019-03-10T21:23:20.795Z,101440.95
2019-03-10T21:26:12.689Z,101447.30
2019-03-10T21:29:04.319Z,101453.52
2019-03-10T21:31:55.734Z,101453.68
2019-03-10T21:34:48.415Z,101453.63
2019-03-10T21:37:39.838Z,101466.69
2019-03-10T21:40:32.756Z,101509.55
2019-03-10T21:43:24.230Z,101591.70
2019-03-10T21:46:16.420Z,101612.62
2019-03-10T21:49:10.101Z,101608.94
2019-03-10T21:52:01.471Z,101590.32
2019-03-10T21:54:52.781Z,101580.44
2019-03-10T21:57:44.706Z,101576.47
2019-03-10T22:00:36.159Z,101573.12
2019-03-10T22:03:29.583Z,101577.36
2019-03-10T22:06:21.108Z,101573.69
2019-03-10T22:09:12.679Z,101567.62
2019-03-10T22:12:05.946Z,101576.28
2019-03-10T22:14:58.333Z,101575.13
2019-03-10T22:17:49.929Z,101564.47
2019-03-10T22:20:42.224Z,101567.50
2019-03-10T22:23:33.810Z,101565.73
2019-03-10T22:26:25.388Z,101564.19
2019-03-10T22:29:16.728Z,101558.41
2019-03-10T22:32:08.393Z,101551.11
2019-03-10T22:34:59.754Z,101546.37
2019-03-10T22:37:51.343Z,101551.27
2019-03-10T22:40:43.010Z,101547.34
2019-03-10T22:43:34.250Z,101554.47
2019-03-10T22:46:25.591Z,101547.28
2019-03-10T22:49:17.111Z,101550.52
2019-03-10T22:52:08.734Z,101544.36
2019-03-10T22:55:00.433Z,101537.61
2019-03-10T22:57:51.768Z,101533.79
2019-03-10T23:00:49.805Z,101542.97
2019-03-10T23:03:42.738Z,101536.00
2019-03-10T23:06:34.328Z,101532.88
2019-03-10T23:09:25.700Z,101536.53
2019-03-10T23:12:17.769Z,101536.30
2019-03-10T23:15:11.055Z,101535.78
2019-03-10T23:18:02.516Z,101539.81
2019-03-10T23:20:54.751Z,101548.92
2019-03-10T23:23:46.103Z,101548.99
2019-03-10T23:26:38.362Z,101541.78
2019-03-10T23:29:29.715Z,101543.74
2019-03-10T23:32:21.311Z,101541.82
2019-03-10T23:35:13.594Z,101539.66
2019-03-10T23:38:05.180Z,101539.41
2019-03-10T23:40:56.799Z,101543.02
2019-03-10T23:43:48.814Z,101543.09
2019-03-10T23:46:40.372Z,101546.52
2019-03-10T23:49:31.944Z,101547.15
2019-03-10T23:52:23.396Z,101555.13
2019-03-10T23:55:15.056Z,101556.38
2019-03-10T23:58:06.439Z,101549.19
